sensor_id;sensor_type;location;lat;lon;timestamp;pressure;altitude;pressure_sealevel;temperature;humidity
45071;BME280;30836;48.906;9.140;2023-08-06T00:00:20;978.66;;;23.83;52.45
45071;BME280;30836;48.906;9.140;2023-08-06T00:01:21;978.68;;;23.82;52.39
45071;BME280;30836;48.906;9.140;2023-08-06T00:02:22;978.66;;;23.83;52.27
45071;BME280;30836;48.906;9.140;2023-08-06T00:03:22;978.66;;;23.81;52.41
45071;BME280;30836;48.906;9.140;2023-08-06T00:04:22;978.66;;;23.78;52.40
45071;BME280;30836;48.906;9.140;2023-08-06T00:05:23;978.66;;;23.76;52.34
45071;BME280;30836;48.906;9.140;2023-08-06T00:06:23;978.64;;;23.73;52.30
45071;BME280;30836;48.906;9.140;2023-08-06T00:07:24;978.64;;;23.69;52.43
45071;BME280;30836;48.906;9.140;2023-08-06T00:08:24;978.64;;;23.64;52.43
45071;BME280;30836;48.906;9.140;2023-08-06T00:09:24;978.60;;;23.62;52.53
45071;BME280;30836;48.906;9.140;2023-08-06T00:10:25;978.60;;;23.60;52.43
45071;BME280;30836;48.906;9.140;2023-08-06T00:11:25;978.58;;;23.59;52.38
45071;BME280;30836;48.906;9.140;2023-08-06T00:12:26;978.54;;;23.59;52.46
45071;BME280;30836;48.906;9.140;2023-08-06T00:13:26;978.56;;;23.58;52.54
45071;BME280;30836;48.906;9.140;2023-08-06T00:14:27;978.54;;;23.58;52.52
45071;BME280;30836;48.906;9.140;2023-08-06T00:15:27;978.54;;;23.57;52.62
45071;BME280;30836;48.906;9.140;2023-08-06T00:16:27;978.54;;;23.57;52.59
45071;BME280;30836;48.906;9.140;2023-08-06T00:17:28;978.54;;;23.57;52.57
45071;BME280;30836;48.906;9.140;2023-08-06T00:18:28;978.54;;;23.56;52.48
45071;BME280;30836;48.906;9.140;2023-08-06T00:19:29;978.54;;;23.55;52.50
45071;BME280;30836;48.906;9.140;2023-08-06T00:20:29;978.54;;;23.55;52.42
45071;BME280;30836;48.906;9.140;2023-08-06T00:21:30;978.53;;;23.55;52.37
45071;BME280;30836;48.906;9.140;2023-08-06T00:22:33;978.53;;;23.55;52.44
45071;BME280;30836;48.906;9.140;2023-08-06T00:23:35;978.51;;;23.56;52.42
45071;BME280;30836;48.906;9.140;2023-08-06T00:24:35;978.51;;;23.57;52.31
45071;BME280;30836;48.906;9.140;2023-08-06T00:25:36;978.47;;;23.58;52.25
45071;BME280;30836;48.906;9.140;2023-08-06T00:26:37;978.47;;;23.59;52.24
45071;BME280;30836;48.906;9.140;2023-08-06T00:27:37;978.45;;;23.59;52.19
45071;BME280;30836;48.906;9.140;2023-08-06T00:28:38;978.43;;;23.59;52.13
45071;BME280;30836;48.906;9.140;2023-08-06T00:29:38;978.45;;;23.59;52.08
45071;BME280;30836;48.906;9.140;2023-08-06T00:30:39;978.43;;;23.60;52.03
45071;BME280;30836;48.906;9.140;2023-08-06T00:31:39;978.43;;;23.61;51.89
45071;BME280;30836;48.906;9.140;2023-08-06T00:32:40;978.41;;;23.61;51.75
45071;BME280;30836;48.906;9.140;2023-08-06T00:33:40;978.43;;;23.61;51.88
45071;BME280;30836;48.906;9.140;2023-08-06T00:34:40;978.45;;;23.60;51.86
45071;BME280;30836;48.906;9.140;2023-08-06T00:35:41;978.45;;;23.59;51.78
45071;BME280;30836;48.906;9.140;2023-08-06T00:36:41;978.45;;;23.58;51.73
45071;BME280;30836;48.906;9.140;2023-08-06T00:37:42;978.45;;;23.57;51.90
45071;BME280;30836;48.906;9.140;2023-08-06T00:38:42;978.43;;;23.55;51.99
45071;BME280;30836;48.906;9.140;2023-08-06T00:39:43;978.43;;;23.53;51.94
45071;BME280;30836;48.906;9.140;2023-08-06T00:40:44;978.41;;;23.51;52.02
45071;BME280;30836;48.906;9.140;2023-08-06T00:41:44;978.39;;;23.50;51.97
45071;BME280;30836;48.906;9.140;2023-08-06T00:42:45;978.39;;;23.49;51.96
45071;BME280;30836;48.906;9.140;2023-08-06T00:43:45;978.37;;;23.49;51.99
45071;BME280;30836;48.906;9.140;2023-08-06T00:44:46;978.39;;;23.49;52.07
45071;BME280;30836;48.906;9.140;2023-08-06T00:45:46;978.39;;;23.48;52.07
45071;BME280;30836;48.906;9.140;2023-08-06T00:46:47;978.39;;;23.48;52.08
45071;BME280;30836;48.906;9.140;2023-08-06T00:47:48;978.39;;;23.48;52.09
45071;BME280;30836;48.906;9.140;2023-08-06T00:48:48;978.39;;;23.48;52.09
45071;BME280;30836;48.906;9.140;2023-08-06T00:49:51;978.33;;;23.48;52.13
45071;BME280;30836;48.906;9.140;2023-08-06T00:50:51;978.35;;;23.47;52.21
45071;BME280;30836;48.906;9.140;2023-08-06T00:51:52;978.37;;;23.46;52.24
45071;BME280;30836;48.906;9.140;2023-08-06T00:52:53;978.35;;;23.45;52.21
45071;BME280;30836;48.906;9.140;2023-08-06T00:53:54;978.35;;;23.45;52.18
45071;BME280;30836;48.906;9.140;2023-08-06T00:54:55;978.33;;;23.44;52.16
45071;BME280;30836;48.906;9.140;2023-08-06T00:55:55;978.29;;;23.44;52.08
45071;BME280;30836;48.906;9.140;2023-08-06T00:56:56;978.29;;;23.43;52.06
45071;BME280;30836;48.906;9.140;2023-08-06T00:57:57;978.25;;;23.40;51.87
45071;BME280;30836;48.906;9.140;2023-08-06T00:58:58;978.21;;;23.35;52.11
45071;BME280;30836;48.906;9.140;2023-08-06T00:59:58;978.21;;;23.30;52.20
45071;BME280;30836;48.906;9.140;2023-08-06T01:00:59;978.19;;;23.26;52.23
45071;BME280;30836;48.906;9.140;2023-08-06T01:01:59;978.19;;;23.25;52.30
45071;BME280;30836;48.906;9.140;2023-08-06T01:03:00;978.15;;;23.25;52.22
45071;BME280;30836;48.906;9.140;2023-08-06T01:04:01;978.17;;;23.26;52.24
45071;BME280;30836;48.906;9.140;2023-08-06T01:05:01;978.17;;;23.26;52.24
45071;BME280;30836;48.906;9.140;2023-08-06T01:06:02;978.19;;;23.26;52.17
45071;BME280;30836;48.906;9.140;2023-08-06T01:10:23;978.15;;;23.27;51.67
45071;BME280;30836;48.906;9.140;2023-08-06T01:11:32;978.17;;;23.23;51.89
45071;BME280;30836;48.906;9.140;2023-08-06T01:13:48;978.15;;;23.27;51.22
45071;BME280;30836;48.906;9.140;2023-08-06T01:14:55;978.13;;;23.38;50.71
45071;BME280;30836;48.906;9.140;2023-08-06T01:15:56;978.13;;;23.50;50.36
45071;BME280;30836;48.906;9.140;2023-08-06T01:16:59;978.09;;;23.60;49.95
45071;BME280;30836;48.906;9.140;2023-08-06T01:18:00;978.09;;;23.68;49.74
45071;BME280;30836;48.906;9.140;2023-08-06T01:19:01;978.09;;;23.74;49.68
45071;BME280;30836;48.906;9.140;2023-08-06T01:20:01;978.07;;;23.80;49.45
45071;BME280;30836;48.906;9.140;2023-08-06T01:21:02;978.03;;;23.85;49.24
45071;BME280;30836;48.906;9.140;2023-08-06T01:22:02;977.99;;;23.88;49.27
45071;BME280;30836;48.906;9.140;2023-08-06T01:23:03;977.96;;;23.91;49.04
45071;BME280;30836;48.906;9.140;2023-08-06T01:24:03;977.96;;;23.93;48.65
45071;BME280;30836;48.906;9.140;2023-08-06T01:25:04;977.94;;;23.94;48.59
45071;BME280;30836;48.906;9.140;2023-08-06T01:26:08;977.94;;;23.94;48.40
45071;BME280;30836;48.906;9.140;2023-08-06T01:29:35;977.94;;;23.92;48.23
45071;BME280;30836;48.906;9.140;2023-08-06T01:30:41;977.96;;;23.91;48.07
45071;BME280;30836;48.906;9.140;2023-08-06T01:31:43;977.96;;;23.91;48.02
45071;BME280;30836;48.906;9.140;2023-08-06T01:32:45;977.98;;;23.91;47.98
45071;BME280;30836;48.906;9.140;2023-08-06T01:33:47;977.96;;;23.92;47.92
45071;BME280;30836;48.906;9.140;2023-08-06T01:34:49;977.96;;;23.93;47.93
45071;BME280;30836;48.906;9.140;2023-08-06T01:35:51;977.96;;;23.95;47.85
45071;BME280;30836;48.906;9.140;2023-08-06T01:36:54;977.96;;;23.96;47.73
45071;BME280;30836;48.906;9.140;2023-08-06T01:37:54;977.96;;;23.97;47.70
45071;BME280;30836;48.906;9.140;2023-08-06T01:38:55;977.94;;;23.97;47.68
45071;BME280;30836;48.906;9.140;2023-08-06T01:39:55;977.94;;;23.98;47.69
45071;BME280;30836;48.906;9.140;2023-08-06T01:40:56;977.90;;;23.99;47.70
45071;BME280;30836;48.906;9.140;2023-08-06T01:41:56;977.92;;;24.00;47.69
45071;BME280;30836;48.906;9.140;2023-08-06T01:42:57;977.88;;;24.01;47.74
45071;BME280;30836;48.906;9.140;2023-08-06T01:43:57;977.84;;;24.02;47.67
45071;BME280;30836;48.906;9.140;2023-08-06T01:44:57;977.86;;;24.03;47.58
45071;BME280;30836;48.906;9.140;2023-08-06T01:45:58;977.88;;;24.03;47.58
45071;BME280;30836;48.906;9.140;2023-08-06T01:46:58;977.88;;;24.03;47.67
45071;BME280;30836;48.906;9.140;2023-08-06T01:47:59;977.88;;;24.02;47.54
45071;BME280;30836;48.906;9.140;2023-08-06T01:48:59;977.90;;;24.01;47.47
45071;BME280;30836;48.906;9.140;2023-08-06T01:49:59;977.88;;;23.99;47.48
45071;BME280;30836;48.906;9.140;2023-08-06T01:51:00;977.90;;;23.94;47.36
45071;BME280;30836;48.906;9.140;2023-08-06T01:52:00;977.84;;;23.90;47.44
45071;BME280;30836;48.906;9.140;2023-08-06T01:53:01;977.84;;;23.87;47.38
45071;BME280;30836;48.906;9.140;2023-08-06T01:54:01;977.80;;;23.85;47.36
45071;BME280;30836;48.906;9.140;2023-08-06T01:55:02;977.78;;;23.84;47.24
45071;BME280;30836;48.906;9.140;2023-08-06T01:56:02;977.76;;;23.83;47.17
45071;BME280;30836;48.906;9.140;2023-08-06T01:57:03;977.74;;;23.80;47.00
45071;BME280;30836;48.906;9.140;2023-08-06T01:58:04;977.72;;;23.77;47.22
45071;BME280;30836;48.906;9.140;2023-08-06T01:59:04;977.68;;;23.77;47.18
45071;BME280;30836;48.906;9.140;2023-08-06T02:00:05;977.68;;;23.77;47.12
45071;BME280;30836;48.906;9.140;2023-08-06T02:01:06;977.66;;;23.76;47.17
45071;BME280;30836;48.906;9.140;2023-08-06T02:02:06;977.64;;;23.73;47.12
45071;BME280;30836;48.906;9.140;2023-08-06T02:03:06;977.64;;;23.69;47.19
45071;BME280;30836;48.906;9.140;2023-08-06T02:04:07;977.62;;;23.63;47.44
45071;BME280;30836;48.906;9.140;2023-08-06T02:05:07;977.62;;;23.55;47.47
45071;BME280;30836;48.906;9.140;2023-08-06T02:06:08;977.56;;;23.50;47.50
45071;BME280;30836;48.906;9.140;2023-08-06T02:07:08;977.56;;;23.47;47.38
45071;BME280;30836;48.906;9.140;2023-08-06T02:08:08;977.56;;;23.45;47.49
45071;BME280;30836;48.906;9.140;2023-08-06T02:09:09;977.56;;;23.42;47.51
45071;BME280;30836;48.906;9.140;2023-08-06T02:10:09;977.56;;;23.41;47.50
45071;BME280;30836;48.906;9.140;2023-08-06T02:11:10;977.54;;;23.39;47.62
45071;BME280;30836;48.906;9.140;2023-08-06T02:12:10;977.56;;;23.36;47.76
45071;BME280;30836;48.906;9.140;2023-08-06T02:13:11;977.52;;;23.33;47.60
45071;BME280;30836;48.906;9.140;2023-08-06T02:14:11;977.52;;;23.29;47.57
45071;BME280;30836;48.906;9.140;2023-08-06T02:15:12;977.51;;;23.26;47.62
45071;BME280;30836;48.906;9.140;2023-08-06T02:16:12;977.51;;;23.21;47.58
45071;BME280;30836;48.906;9.140;2023-08-06T02:17:13;977.51;;;23.14;47.90
45071;BME280;30836;48.906;9.140;2023-08-06T02:18:13;977.51;;;23.06;47.92
45071;BME280;30836;48.906;9.140;2023-08-06T02:19:14;977.49;;;23.02;48.07
45071;BME280;30836;48.906;9.140;2023-08-06T02:20:15;977.47;;;23.02;47.99
45071;BME280;30836;48.906;9.140;2023-08-06T02:21:15;977.49;;;23.04;47.85
45071;BME280;30836;48.906;9.140;2023-08-06T02:22:16;977.45;;;23.06;47.90
45071;BME280;30836;48.906;9.140;2023-08-06T02:23:16;977.43;;;23.02;47.75
45071;BME280;30836;48.906;9.140;2023-08-06T02:24:17;977.43;;;22.99;47.86
45071;BME280;30836;48.906;9.140;2023-08-06T02:25:17;977.39;;;22.97;47.71
45071;BME280;30836;48.906;9.140;2023-08-06T02:26:17;977.41;;;22.95;48.00
45071;BME280;30836;48.906;9.140;2023-08-06T02:27:18;977.37;;;22.93;47.90
45071;BME280;30836;48.906;9.140;2023-08-06T02:28:18;977.35;;;22.90;47.90
45071;BME280;30836;48.906;9.140;2023-08-06T02:29:19;977.33;;;22.83;48.09
45071;BME280;30836;48.906;9.140;2023-08-06T02:30:19;977.33;;;22.67;48.64
45071;BME280;30836;48.906;9.140;2023-08-06T02:31:19;977.31;;;22.48;49.04
45071;BME280;30836;48.906;9.140;2023-08-06T02:32:20;977.31;;;22.29;49.50
45071;BME280;30836;48.906;9.140;2023-08-06T02:33:20;977.29;;;22.12;49.79
45071;BME280;30836;48.906;9.140;2023-08-06T02:34:21;977.29;;;21.98;50.03
45071;BME280;30836;48.906;9.140;2023-08-06T02:35:22;977.25;;;21.86;50.17
45071;BME280;30836;48.906;9.140;2023-08-06T02:36:22;977.23;;;21.78;50.26
45071;BME280;30836;48.906;9.140;2023-08-06T02:37:23;977.21;;;21.70;50.53
45071;BME280;30836;48.906;9.140;2023-08-06T02:38:23;977.21;;;21.63;50.57
45071;BME280;30836;48.906;9.140;2023-08-06T02:39:23;977.19;;;21.58;50.63
45071;BME280;30836;48.906;9.140;2023-08-06T02:40:24;977.19;;;21.54;50.70
45071;BME280;30836;48.906;9.140;2023-08-06T02:41:24;977.17;;;21.47;50.85
45071;BME280;30836;48.906;9.140;2023-08-06T02:42:25;977.15;;;21.39;50.99
45071;BME280;30836;48.906;9.140;2023-08-06T02:43:25;977.13;;;21.33;51.13
45071;BME280;30836;48.906;9.140;2023-08-06T02:44:28;977.13;;;21.31;51.08
45071;BME280;30836;48.906;9.140;2023-08-06T02:45:29;977.15;;;21.30;51.19
45071;BME280;30836;48.906;9.140;2023-08-06T02:46:29;977.13;;;21.28;51.07
45071;BME280;30836;48.906;9.140;2023-08-06T02:47:30;977.13;;;21.25;51.27
45071;BME280;30836;48.906;9.140;2023-08-06T02:48:30;977.15;;;21.18;51.44
45071;BME280;30836;48.906;9.140;2023-08-06T02:49:31;977.11;;;21.12;51.60
45071;BME280;30836;48.906;9.140;2023-08-06T02:50:31;977.13;;;21.09;51.60
45071;BME280;30836;48.906;9.140;2023-08-06T02:51:42;977.13;;;21.06;51.66
45071;BME280;30836;48.906;9.140;2023-08-06T02:52:45;977.15;;;21.02;51.78
45071;BME280;30836;48.906;9.140;2023-08-06T02:53:45;977.13;;;21.00;51.81
45071;BME280;30836;48.906;9.140;2023-08-06T02:54:48;977.13;;;20.98;51.91
45071;BME280;30836;48.906;9.140;2023-08-06T02:55:48;977.11;;;20.97;51.77
45071;BME280;30836;48.906;9.140;2023-08-06T02:56:49;977.09;;;21.01;51.57
45071;BME280;30836;48.906;9.140;2023-08-06T02:57:49;977.05;;;21.06;51.52
45071;BME280;30836;48.906;9.140;2023-08-06T02:58:50;977.01;;;21.09;51.47
45071;BME280;30836;48.906;9.140;2023-08-06T02:59:50;976.98;;;21.11;51.41
45071;BME280;30836;48.906;9.140;2023-08-06T03:02:03;976.87;;;21.14;51.37
45071;BME280;30836;48.906;9.140;2023-08-06T03:03:04;976.87;;;21.17;51.31
45071;BME280;30836;48.906;9.140;2023-08-06T03:04:04;976.85;;;21.19;51.29
45071;BME280;30836;48.906;9.140;2023-08-06T03:05:05;976.83;;;21.21;51.29
45071;BME280;30836;48.906;9.140;2023-08-06T03:06:06;976.82;;;21.21;51.23
45071;BME280;30836;48.906;9.140;2023-08-06T03:07:07;976.80;;;21.23;51.22
45071;BME280;30836;48.906;9.140;2023-08-06T03:08:07;976.82;;;21.25;51.24
45071;BME280;30836;48.906;9.140;2023-08-06T03:09:07;976.82;;;21.26;51.03
45071;BME280;30836;48.906;9.140;2023-08-06T03:10:08;976.82;;;21.27;51.03
45071;BME280;30836;48.906;9.140;2023-08-06T03:11:09;976.85;;;21.30;50.92
45071;BME280;30836;48.906;9.140;2023-08-06T03:12:09;976.85;;;21.40;50.48
45071;BME280;30836;48.906;9.140;2023-08-06T03:13:10;976.89;;;21.56;50.09
45071;BME280;30836;48.906;9.140;2023-08-06T03:14:10;976.98;;;21.72;49.61
45071;BME280;30836;48.906;9.140;2023-08-06T03:15:10;976.98;;;21.85;49.47
45071;BME280;30836;48.906;9.140;2023-08-06T03:16:11;977.01;;;21.94;49.28
45071;BME280;30836;48.906;9.140;2023-08-06T03:17:11;977.00;;;22.02;49.03
45071;BME280;30836;48.906;9.140;2023-08-06T03:18:12;977.01;;;22.11;48.85
45071;BME280;30836;48.906;9.140;2023-08-06T03:19:12;977.00;;;22.18;48.73
45071;BME280;30836;48.906;9.140;2023-08-06T03:20:13;977.01;;;22.25;48.65
45071;BME280;30836;48.906;9.140;2023-08-06T03:21:13;977.01;;;22.31;48.46
45071;BME280;30836;48.906;9.140;2023-08-06T03:22:13;977.05;;;22.37;48.30
45071;BME280;30836;48.906;9.140;2023-08-06T03:23:14;977.07;;;22.42;48.12
45071;BME280;30836;48.906;9.140;2023-08-06T03:24:14;977.03;;;22.47;48.09
45071;BME280;30836;48.906;9.140;2023-08-06T03:25:15;977.05;;;22.51;48.09
45071;BME280;30836;48.906;9.140;2023-08-06T03:26:15;977.09;;;22.53;48.04
45071;BME280;30836;48.906;9.140;2023-08-06T03:27:16;977.05;;;22.56;48.02
45071;BME280;30836;48.906;9.140;2023-08-06T03:28:16;977.07;;;22.59;48.04
45071;BME280;30836;48.906;9.140;2023-08-06T03:29:17;977.07;;;22.61;47.93
45071;BME280;30836;48.906;9.140;2023-08-06T03:30:17;977.05;;;22.63;47.88
45071;BME280;30836;48.906;9.140;2023-08-06T03:31:17;977.05;;;22.66;47.90
45071;BME280;30836;48.906;9.140;2023-08-06T03:32:18;977.07;;;22.69;47.88
45071;BME280;30836;48.906;9.140;2023-08-06T03:33:18;977.07;;;22.73;47.83
45071;BME280;30836;48.906;9.140;2023-08-06T03:34:19;977.07;;;22.77;47.81
45071;BME280;30836;48.906;9.140;2023-08-06T03:35:19;977.05;;;22.81;47.45
45071;BME280;30836;48.906;9.140;2023-08-06T03:36:20;977.05;;;22.84;47.44
45071;BME280;30836;48.906;9.140;2023-08-06T03:37:20;977.07;;;22.84;47.47
45071;BME280;30836;48.906;9.140;2023-08-06T03:38:20;977.05;;;22.84;47.52
45071;BME280;30836;48.906;9.140;2023-08-06T03:39:21;977.05;;;22.84;47.54
45071;BME280;30836;48.906;9.140;2023-08-06T03:40:21;977.07;;;22.84;47.58
45071;BME280;30836;48.906;9.140;2023-08-06T03:41:22;977.07;;;22.84;47.50
45071;BME280;30836;48.906;9.140;2023-08-06T03:42:22;977.09;;;22.84;47.64
45071;BME280;30836;48.906;9.140;2023-08-06T03:43:23;977.09;;;22.83;47.66
45071;BME280;30836;48.906;9.140;2023-08-06T03:44:23;977.09;;;22.84;47.64
45071;BME280;30836;48.906;9.140;2023-08-06T03:45:23;977.09;;;22.83;47.54
45071;BME280;30836;48.906;9.140;2023-08-06T03:46:24;977.05;;;22.83;47.62
45071;BME280;30836;48.906;9.140;2023-08-06T03:47:24;977.03;;;22.84;47.65
45071;BME280;30836;48.906;9.140;2023-08-06T03:48:25;977.01;;;22.80;48.03
45071;BME280;30836;48.906;9.140;2023-08-06T03:49:25;977.01;;;22.70;48.20
45071;BME280;30836;48.906;9.140;2023-08-06T03:50:25;977.03;;;22.59;48.50
45071;BME280;30836;48.906;9.140;2023-08-06T03:51:26;977.01;;;22.50;48.78
45071;BME280;30836;48.906;9.140;2023-08-06T03:52:26;977.01;;;22.42;48.92
45071;BME280;30836;48.906;9.140;2023-08-06T03:53:27;976.98;;;22.38;48.98
45071;BME280;30836;48.906;9.140;2023-08-06T03:54:27;976.98;;;22.35;49.05
45071;BME280;30836;48.906;9.140;2023-08-06T03:55:28;976.89;;;22.32;49.05
45071;BME280;30836;48.906;9.140;2023-08-06T03:56:28;976.98;;;22.28;49.20
45071;BME280;30836;48.906;9.140;2023-08-06T03:57:28;977.00;;;22.26;49.15
45071;BME280;30836;48.906;9.140;2023-08-06T03:58:29;977.00;;;22.25;49.10
45071;BME280;30836;48.906;9.140;2023-08-06T03:59:29;977.00;;;22.20;49.47
45071;BME280;30836;48.906;9.140;2023-08-06T04:00:30;977.03;;;22.13;49.64
45071;BME280;30836;48.906;9.140;2023-08-06T04:01:30;977.03;;;22.14;49.54
45071;BME280;30836;48.906;9.140;2023-08-06T04:02:30;977.03;;;22.15;49.46
45071;BME280;30836;48.906;9.140;2023-08-06T04:03:31;977.05;;;22.17;49.43
45071;BME280;30836;48.906;9.140;2023-08-06T04:04:31;977.07;;;22.19;49.38
45071;BME280;30836;48.906;9.140;2023-08-06T04:05:32;977.07;;;22.19;49.29
45071;BME280;30836;48.906;9.140;2023-08-06T04:06:32;977.05;;;22.17;49.33
45071;BME280;30836;48.906;9.140;2023-08-06T04:07:33;977.07;;;22.14;49.30
45071;BME280;30836;48.906;9.140;2023-08-06T04:08:33;977.09;;;22.11;49.45
45071;BME280;30836;48.906;9.140;2023-08-06T04:09:34;977.07;;;22.10;49.52
45071;BME280;30836;48.906;9.140;2023-08-06T04:10:34;977.09;;;22.10;49.58
45071;BME280;30836;48.906;9.140;2023-08-06T04:11:34;977.09;;;22.09;49.58
45071;BME280;30836;48.906;9.140;2023-08-06T04:12:35;977.11;;;22.08;49.66
45071;BME280;30836;48.906;9.140;2023-08-06T04:13:35;977.13;;;22.06;49.59
45071;BME280;30836;48.906;9.140;2023-08-06T04:14:36;977.15;;;22.04;49.63
45071;BME280;30836;48.906;9.140;2023-08-06T04:15:36;977.15;;;22.04;49.74
45071;BME280;30836;48.906;9.140;2023-08-06T04:16:37;977.17;;;22.03;49.74
45071;BME280;30836;48.906;9.140;2023-08-06T04:17:37;977.17;;;22.02;49.72
45071;BME280;30836;48.906;9.140;2023-08-06T04:18:37;977.17;;;22.02;49.92
45071;BME280;30836;48.906;9.140;2023-08-06T04:19:38;977.17;;;22.00;50.01
45071;BME280;30836;48.906;9.140;2023-08-06T04:21:45;977.19;;;21.99;50.10
45071;BME280;30836;48.906;9.140;2023-08-06T04:22:45;977.21;;;21.96;50.33
45071;BME280;30836;48.906;9.140;2023-08-06T04:23:45;977.19;;;21.92;50.44
45071;BME280;30836;48.906;9.140;2023-08-06T04:24:46;977.21;;;21.88;50.64
45071;BME280;30836;48.906;9.140;2023-08-06T04:25:47;977.21;;;21.82;50.63
45071;BME280;30836;48.906;9.140;2023-08-06T04:26:47;977.21;;;21.77;50.70
45071;BME280;30836;48.906;9.140;2023-08-06T04:27:48;977.19;;;21.74;50.83
45071;BME280;30836;48.906;9.140;2023-08-06T04:28:48;977.21;;;21.72;50.82
45071;BME280;30836;48.906;9.140;2023-08-06T04:29:49;977.21;;;21.71;50.84
45071;BME280;30836;48.906;9.140;2023-08-06T04:30:49;977.17;;;21.71;50.78
45071;BME280;30836;48.906;9.140;2023-08-06T04:31:50;977.17;;;21.71;50.87
45071;BME280;30836;48.906;9.140;2023-08-06T04:32:50;977.15;;;21.70;51.04
45071;BME280;30836;48.906;9.140;2023-08-06T04:33:50;977.13;;;21.68;51.01
45071;BME280;30836;48.906;9.140;2023-08-06T04:34:51;977.15;;;21.67;51.05
45071;BME280;30836;48.906;9.140;2023-08-06T04:35:54;977.15;;;21.65;51.16
45071;BME280;30836;48.906;9.140;2023-08-06T04:36:55;977.17;;;21.63;51.24
45071;BME280;30836;48.906;9.140;2023-08-06T04:37:55;977.13;;;21.59;51.37
45071;BME280;30836;48.906;9.140;2023-08-06T04:38:56;977.11;;;21.57;51.55
45071;BME280;30836;48.906;9.140;2023-08-06T04:39:56;977.15;;;21.57;51.51
45071;BME280;30836;48.906;9.140;2023-08-06T04:40:57;977.17;;;21.58;51.63
45071;BME280;30836;48.906;9.140;2023-08-06T04:41:58;977.17;;;21.59;51.63
45071;BME280;30836;48.906;9.140;2023-08-06T04:42:59;977.21;;;21.60;51.65
45071;BME280;30836;48.906;9.140;2023-08-06T04:43:59;977.21;;;21.57;51.69
45071;BME280;30836;48.906;9.140;2023-08-06T04:45:01;977.21;;;21.53;51.64
45071;BME280;30836;48.906;9.140;2023-08-06T04:46:02;977.23;;;21.51;51.60
45071;BME280;30836;48.906;9.140;2023-08-06T04:47:02;977.23;;;21.50;51.68
45071;BME280;30836;48.906;9.140;2023-08-06T04:48:03;977.21;;;21.50;51.77
45071;BME280;30836;48.906;9.140;2023-08-06T04:49:03;977.23;;;21.51;51.80
45071;BME280;30836;48.906;9.140;2023-08-06T04:50:04;977.23;;;21.53;51.70
45071;BME280;30836;48.906;9.140;2023-08-06T04:51:05;977.25;;;21.57;51.65
45071;BME280;30836;48.906;9.140;2023-08-06T04:52:05;977.21;;;21.62;51.58
45071;BME280;30836;48.906;9.140;2023-08-06T04:53:06;977.25;;;21.66;51.57
45071;BME280;30836;48.906;9.140;2023-08-06T04:54:06;977.23;;;21.71;51.56
45071;BME280;30836;48.906;9.140;2023-08-06T04:55:07;977.27;;;21.78;51.38
45071;BME280;30836;48.906;9.140;2023-08-06T04:56:07;977.29;;;21.85;51.27
45071;BME280;30836;48.906;9.140;2023-08-06T04:57:08;977.29;;;21.91;51.07
45071;BME280;30836;48.906;9.140;2023-08-06T04:58:08;977.31;;;21.97;50.96
45071;BME280;30836;48.906;9.140;2023-08-06T04:59:10;977.29;;;22.03;50.85
45071;BME280;30836;48.906;9.140;2023-08-06T05:00:10;977.31;;;22.09;50.74
45071;BME280;30836;48.906;9.140;2023-08-06T05:01:11;977.31;;;22.15;50.60
45071;BME280;30836;48.906;9.140;2023-08-06T05:02:11;977.29;;;22.19;50.60
45071;BME280;30836;48.906;9.140;2023-08-06T05:03:12;977.27;;;22.21;50.52
45071;BME280;30836;48.906;9.140;2023-08-06T05:04:12;977.33;;;22.24;50.53
45071;BME280;30836;48.906;9.140;2023-08-06T05:05:12;977.33;;;22.27;50.74
45071;BME280;30836;48.906;9.140;2023-08-06T05:06:13;977.33;;;22.29;50.82
45071;BME280;30836;48.906;9.140;2023-08-06T05:07:13;977.29;;;22.31;50.98
45071;BME280;30836;48.906;9.140;2023-08-06T05:08:14;977.25;;;22.32;51.14
45071;BME280;30836;48.906;9.140;2023-08-06T05:09:15;977.27;;;22.34;51.10
45071;BME280;30836;48.906;9.140;2023-08-06T05:10:16;977.31;;;22.37;51.15
45071;BME280;30836;48.906;9.140;2023-08-06T05:11:16;977.31;;;22.39;51.21
45071;BME280;30836;48.906;9.140;2023-08-06T05:12:17;977.29;;;22.41;51.23
45071;BME280;30836;48.906;9.140;2023-08-06T05:13:17;977.31;;;22.42;51.28
45071;BME280;30836;48.906;9.140;2023-08-06T05:13:27;977.29;;;22.43;51.26
45071;BME280;30836;48.906;9.140;2023-08-06T05:14:28;977.27;;;22.46;51.15
45071;BME280;30836;48.906;9.140;2023-08-06T05:15:28;977.23;;;22.49;51.07
45071;BME280;30836;48.906;9.140;2023-08-06T05:16:29;977.23;;;22.50;51.13
45071;BME280;30836;48.906;9.140;2023-08-06T05:17:30;977.23;;;22.48;51.25
45071;BME280;30836;48.906;9.140;2023-08-06T05:18:30;977.23;;;22.44;51.37
45071;BME280;30836;48.906;9.140;2023-08-06T05:19:31;977.23;;;22.41;51.35
45071;BME280;30836;48.906;9.140;2023-08-06T05:20:35;977.17;;;22.38;51.24
45071;BME280;30836;48.906;9.140;2023-08-06T05:21:36;977.17;;;22.36;51.41
45071;BME280;30836;48.906;9.140;2023-08-06T05:22:36;977.15;;;22.35;51.40
45071;BME280;30836;48.906;9.140;2023-08-06T05:23:37;977.13;;;22.35;51.45
45071;BME280;30836;48.906;9.140;2023-08-06T05:24:37;977.15;;;22.35;51.52
45071;BME280;30836;48.906;9.140;2023-08-06T05:25:38;977.15;;;22.35;51.49
45071;BME280;30836;48.906;9.140;2023-08-06T05:26:38;977.17;;;22.36;51.63
45071;BME280;30836;48.906;9.140;2023-08-06T05:27:39;977.21;;;22.37;51.65
45071;BME280;30836;48.906;9.140;2023-08-06T05:28:39;977.21;;;22.39;51.52
45071;BME280;30836;48.906;9.140;2023-08-06T05:29:40;977.19;;;22.40;51.58
45071;BME280;30836;48.906;9.140;2023-08-06T05:30:41;977.17;;;22.41;51.78
45071;BME280;30836;48.906;9.140;2023-08-06T05:31:41;977.19;;;22.41;51.43
45071;BME280;30836;48.906;9.140;2023-08-06T05:32:42;977.21;;;22.41;51.20
45071;BME280;30836;48.906;9.140;2023-08-06T05:33:42;977.21;;;22.41;51.06
45071;BME280;30836;48.906;9.140;2023-08-06T05:34:43;977.23;;;22.42;50.99
45071;BME280;30836;48.906;9.140;2023-08-06T05:35:43;977.25;;;22.41;50.69
45071;BME280;30836;48.906;9.140;2023-08-06T05:36:44;977.25;;;22.39;50.56
45071;BME280;30836;48.906;9.140;2023-08-06T05:37:44;977.29;;;22.37;50.55
45071;BME280;30836;48.906;9.140;2023-08-06T05:38:44;977.23;;;22.37;50.51